Time;durP1;ratioP1;P1;durP2;ratioP2;P2;SDS_P1;SDS_P2;PMS_P1;PMS_P2;Temp;Humidity;BMP_temperature;BMP_pressure;BME280_temperature;BME280_humidity;BME280_pressure;Samples;Min_cycle;Max_cycle;Signal;HPM_P1;HPM_P2
2022/06/15 00:01:15;;;;;;;3.90;2.60;;;;;;;17.62;53.40;98633.41;5094795;28;20269;-48
2022/06/15 00:03:42;;;;;;;3.97;2.30;;;;;;;17.60;53.13;98634.63;5094775;28;20606;-48
2022/06/15 00:06:14;;;;;;;6.10;2.47;;;;;;;17.59;52.44;98638.28;5094753;28;20228;-48
2022/06/15 00:08:43;;;;;;;4.57;2.40;;;;;;;17.64;53.63;98635.84;5094139;28;20288;-48
2022/06/15 00:11:12;;;;;;;5.00;2.57;;;;;;;17.69;53.26;98630.81;5094583;28;20186;-48
2022/06/15 00:13:39;;;;;;;5.90;2.50;;;;;;;18.15;49.31;98632.00;5094357;28;20186;-48
2022/06/15 00:16:08;;;;;;;5.60;2.23;;;;;;;18.39;48.57;98630.59;5094340;28;20211;-48
2022/06/15 00:18:36;;;;;;;4.43;2.60;;;;;;;18.69;48.19;98632.03;5093965;28;20277;-48
2022/06/15 00:21:05;;;;;;;4.90;2.70;;;;;;;18.81;47.76;98637.53;5094238;28;20197;-48
2022/06/15 00:23:35;;;;;;;4.47;2.40;;;;;;;18.77;48.27;98634.47;5094355;28;20242;-48
2022/06/15 00:26:04;;;;;;;5.50;2.67;;;;;;;18.65;49.63;98634.28;5094490;28;20193;-48
2022/06/15 00:28:31;;;;;;;4.40;2.00;;;;;;;18.56;51.05;98632.84;5093815;28;20225;-48
2022/06/15 00:30:58;;;;;;;4.17;2.70;;;;;;;18.39;51.76;98638.53;5092280;28;20218;-48
2022/06/15 00:33:26;;;;;;;6.73;2.60;;;;;;;18.25;52.24;98635.06;5093681;28;20190;-48
2022/06/15 00:35:57;;;;;;;4.87;3.03;;;;;;;18.11;52.98;98646.59;5093656;28;20570;-49
2022/06/15 00:38:24;;;;;;;5.07;2.47;;;;;;;17.97;51.86;98648.38;5091771;28;20206;-48
2022/06/15 00:40:52;;;;;;;5.17;2.60;;;;;;;17.83;52.92;98644.84;5093203;28;20271;-48
2022/06/15 00:43:31;;;;;;;6.33;2.80;;;;;;;17.67;53.69;98649.47;5093736;28;20553;-48
2022/06/15 00:45:59;;;;;;;4.20;2.60;;;;;;;17.50;54.44;98643.72;5092620;28;20214;-48
2022/06/15 00:48:26;;;;;;;5.37;2.60;;;;;;;17.34;56.77;98631.66;5092595;28;20205;-48
2022/06/15 00:50:53;;;;;;;4.60;2.60;;;;;;;17.12;56.58;98638.81;5091986;28;20194;-48
2022/06/15 00:53:21;;;;;;;4.07;2.17;;;;;;;17.01;57.30;98631.44;5091799;28;20201;-48
2022/06/15 00:55:50;;;;;;;4.13;2.40;;;;;;;16.82;57.48;98625.81;5093028;28;20530;-48
2022/06/15 00:58:18;;;;;;;3.60;2.67;;;;;;;16.71;58.88;98619.22;5092959;28;20208;-48
2022/06/15 01:00:47;;;;;;;4.43;2.70;;;;;;;16.60;58.88;98606.56;5093163;28;20180;-48
2022/06/15 01:03:14;;;;;;;3.97;2.67;;;;;;;16.47;59.94;98602.81;5091781;28;20682;-48
2022/06/15 01:05:57;;;;;;;3.60;2.30;;;;;;;16.39;58.93;98600.34;5092048;28;20204;-48
2022/06/15 01:08:34;;;;;;;4.33;2.63;;;;;;;16.41;60.27;98587.81;5091429;28;20220;-48
2022/06/15 01:11:19;;;;;;;6.03;2.53;;;;;;;16.43;59.60;98600.75;5093009;28;20682;-48
2022/06/15 01:14:10;;;;;;;6.07;2.70;;;;;;;16.45;59.12;98594.28;5091664;28;20203;-48
2022/06/15 01:16:46;;;;;;;4.07;2.53;;;;;;;16.48;58.71;98586.00;5091904;28;20619;-48
2022/06/15 01:19:42;;;;;;;4.73;3.03;;;;;;;16.56;58.26;98592.16;5091495;28;20210;-48
2022/06/15 01:22:24;;;;;;;4.30;2.63;;;;;;;16.51;59.04;98590.09;5091688;28;20198;-48
2022/06/15 01:25:11;;;;;;;3.97;2.30;;;;;;;16.46;58.34;98587.22;5091837;28;20634;-48
2022/06/15 01:27:59;;;;;;;5.07;2.60;;;;;;;16.47;58.45;98583.56;5092704;28;20203;-48
2022/06/15 01:30:37;;;;;;;4.67;2.57;;;;;;;16.55;57.39;98586.06;5092764;28;20199;-48
2022/06/15 01:33:22;;;;;;;3.07;2.23;;;;;;;16.54;57.73;98581.81;5093005;28;20181;-48
2022/06/15 01:36:03;;;;;;;3.03;2.30;;;;;;;16.56;57.66;98581.59;5091640;28;20628;-48
2022/06/15 01:38:45;;;;;;;2.87;2.37;;;;;;;16.54;58.11;98576.53;5091129;28;20210;-48
2022/06/15 01:41:18;;;;;;;6.07;2.80;;;;;;;16.49;59.78;98584.19;5091698;28;20192;-48
2022/06/15 01:43:53;;;;;;;5.87;2.40;;;;;;;16.43;59.84;98595.50;5091303;28;20222;-48
2022/06/15 01:46:23;;;;;;;4.30;2.60;;;;;;;16.35;59.28;98602.53;5092760;28;20225;-48
2022/06/15 01:48:55;;;;;;;4.27;2.60;;;;;;;16.25;60.37;98598.59;5090830;28;20347;-48
2022/06/15 01:51:27;;;;;;;3.97;3.00;;;;;;;16.14;61.48;98602.53;5090704;28;20310;-48
2022/06/15 01:53:58;;;;;;;3.93;3.00;;;;;;;16.08;61.98;98602.25;5091357;28;20247;-48
2022/06/15 01:56:30;;;;;;;7.17;3.90;;;;;;;16.08;63.51;98607.53;5091320;28;20241;-48
2022/06/15 01:59:17;;;;;;;5.70;3.90;;;;;;;15.96;64.86;98600.31;5091072;28;20207;-48
2022/06/15 02:01:53;;;;;;;8.03;4.50;;;;;;;15.75;66.01;98605.34;5091093;28;20220;-48
2022/06/15 02:04:29;;;;;;;7.67;4.10;;;;;;;15.59;66.86;98602.91;5091101;28;20205;-48
2022/06/15 02:07:08;;;;;;;5.30;3.97;;;;;;;15.42;67.09;98604.91;5090858;28;20636;-48
2022/06/15 02:09:45;;;;;;;9.27;4.30;;;;;;;15.35;68.70;98603.03;5090444;28;20239;-48
2022/06/15 02:12:18;;;;;;;5.50;3.80;;;;;;;15.15;68.62;98605.38;5090849;28;20187;-48
2022/06/15 02:14:53;;;;;;;6.97;3.67;;;;;;;15.07;68.26;98602.84;5090913;28;20194;-48
2022/06/15 02:17:26;;;;;;;5.73;3.30;;;;;;;14.94;68.26;98605.28;5090892;28;20198;-48
2022/06/15 02:19:58;;;;;;;5.70;3.47;;;;;;;14.81;69.42;98601.47;5090726;28;20683;-48
2022/06/15 02:22:47;;;;;;;7.23;3.53;;;;;;;14.78;71.04;98601.84;5092175;28;20299;-48
2022/06/15 02:25:21;;;;;;;9.30;3.70;;;;;;;14.69;70.02;98601.06;5090631;28;20225;-48
2022/06/15 02:27:51;;;;;;;6.10;3.50;;;;;;;14.59;70.32;98608.34;5090496;28;20591;-48
2022/06/15 02:30:22;;;;;;;4.97;3.60;;;;;;;14.55;69.47;98594.78;5090406;28;20211;-48
2022/06/15 02:32:55;;;;;;;3.90;2.87;;;;;;;14.46;69.83;98593.19;5090799;28;20190;-48
2022/06/15 02:35:23;;;;;;;7.07;2.90;;;;;;;14.42;69.63;98586.66;5090908;28;20602;-48
2022/06/15 02:37:54;;;;;;;4.30;2.87;;;;;;;14.33;69.42;98588.53;5090248;28;20273;-48
2022/06/15 02:40:24;;;;;;;5.60;2.67;;;;;;;14.26;69.50;98583.19;5090699;28;20192;-48
2022/06/15 02:42:52;;;;;;;8.13;2.40;;;;;;;14.25;68.61;98592.03;5090341;28;20189;-48
2022/06/15 02:45:23;;;;;;;5.57;2.70;;;;;;;14.22;68.26;98591.59;5090444;28;20219;-48
2022/06/15 02:47:53;;;;;;;3.50;2.70;;;;;;;14.30;68.57;98597.59;5090434;28;20220;-48
2022/06/15 02:50:30;;;;;;;4.77;2.77;;;;;;;14.25;68.14;98591.25;5090546;28;20305;-48
2022/06/15 02:53:03;;;;;;;7.00;2.73;;;;;;;14.24;69.19;98585.16;5090546;28;20185;-48
2022/06/15 02:55:31;;;;;;;6.20;2.60;;;;;;;14.27;68.29;98579.56;5090509;28;20681;-48
2022/06/15 02:58:04;;;;;;;4.60;2.37;;;;;;;14.29;68.03;98585.44;5089958;28;20680;-48
2022/06/15 03:00:39;;;;;;;5.73;2.70;;;;;;;14.34;67.63;98578.84;5090355;28;20187;-48
2022/06/15 03:03:07;;;;;;;6.63;2.27;;;;;;;14.32;68.22;98576.38;5091928;28;20194;-48
2022/06/15 03:05:36;;;;;;;3.80;2.70;;;;;;;14.28;67.12;98575.13;5094335;28;20273;-49
2022/06/15 03:08:04;;;;;;;3.27;2.20;;;;;;;14.44;69.34;98579.44;5094034;28;20301;-48
2022/06/15 03:10:31;;;;;;;4.50;2.70;;;;;;;14.39;69.95;98579.94;5094227;28;20219;-48
2022/06/15 03:12:58;;;;;;;5.23;2.43;;;;;;;14.39;68.78;98585.19;5094549;28;20225;-48
2022/06/15 03:15:25;;;;;;;3.70;2.40;;;;;;;14.38;68.66;98585.38;5093988;28;20205;-49
2022/06/15 03:17:53;;;;;;;3.33;2.40;;;;;;;14.40;67.88;98589.47;5093851;28;20237;-49
2022/06/15 03:20:21;;;;;;;3.27;2.37;;;;;;;14.37;68.67;98587.19;5093782;28;20191;-48
2022/06/15 03:22:49;;;;;;;3.40;2.53;;;;;;;14.27;68.55;98592.69;5094121;28;20193;-48
2022/06/15 03:25:22;;;;;;;3.70;2.50;;;;;;;14.24;69.05;98587.78;5094105;28;20280;-48
2022/06/15 03:27:49;;;;;;;4.67;2.77;;;;;;;14.21;68.90;98589.97;5093756;28;20218;-48
2022/06/15 03:30:18;;;;;;;3.27;2.50;;;;;;;14.13;69.85;98588.19;5094026;28;20556;-48
2022/06/15 03:33:03;;;;;;;4.87;2.37;;;;;;;14.16;70.10;98599.16;5095056;28;20195;-48
2022/06/15 03:35:35;;;;;;;6.07;2.40;;;;;;;14.08;69.63;98593.97;5093644;28;20277;-49
2022/06/15 03:38:18;;;;;;;5.37;2.40;;;;;;;14.07;67.64;98594.13;5093300;28;20676;-49
2022/06/15 03:40:53;;;;;;;5.23;2.60;;;;;;;14.03;69.38;98591.84;5094010;28;20185;-49
2022/06/15 03:43:20;;;;;;;4.60;2.80;;;;;;;14.07;70.20;98596.75;5093869;28;20223;-49
2022/06/15 03:45:48;;;;;;;4.60;2.60;;;;;;;14.09;70.01;98592.97;5093712;28;20528;-48
2022/06/15 03:48:16;;;;;;;6.70;2.60;;;;;;;14.06;70.30;98601.22;5093453;28;20215;-48
2022/06/15 03:50:45;;;;;;;3.27;2.40;;;;;;;14.04;70.41;98600.56;5093493;28;20219;-48
2022/06/15 03:53:14;;;;;;;4.93;2.67;;;;;;;14.05;70.10;98604.81;5093807;28;20685;-49
2022/06/15 03:55:44;;;;;;;4.83;2.43;;;;;;;14.08;69.29;98606.28;5093995;28;20213;-48
2022/06/15 03:58:18;;;;;;;5.17;2.50;;;;;;;14.05;69.98;98611.88;5093399;28;20218;-48
2022/06/15 04:00:49;;;;;;;4.30;2.53;;;;;;;14.05;70.46;98614.50;5093771;28;20199;-48
2022/06/15 04:03:18;;;;;;;3.47;2.20;;;;;;;14.08;69.10;98616.75;5093408;28;20191;-49
2022/06/15 04:05:55;;;;;;;4.97;2.40;;;;;;;14.09;70.00;98616.59;5094888;28;20197;-48
2022/06/15 04:08:35;;;;;;;4.30;2.50;;;;;;;14.11;69.91;98611.16;5093137;28;20265;-48
2022/06/15 04:11:10;;;;;;;6.47;2.33;;;;;;;14.08;69.97;98616.75;5093401;28;20216;-48
2022/06/15 04:13:39;;;;;;;5.30;2.40;;;;;;;14.07;72.27;98623.00;5093211;28;20202;-49
2022/06/15 04:16:12;;;;;;;5.67;2.60;;;;;;;14.06;71.92;98626.63;5093340;28;20646;-50
2022/06/15 04:18:39;;;;;;;3.93;2.40;;;;;;;14.09;71.39;98618.41;5092903;28;20226;-51
2022/06/15 04:21:11;;;;;;;6.13;2.70;;;;;;;14.08;72.80;98620.22;5093592;28;20189;-51
2022/06/15 04:23:38;;;;;;;2.77;2.40;;;;;;;14.10;71.24;98627.91;5093340;28;20278;-51
2022/06/15 04:26:05;;;;;;;3.73;2.60;;;;;;;14.10;71.71;98627.91;5093242;28;20192;-51
2022/06/15 04:28:43;;;;;;;6.80;3.00;;;;;;;14.13;72.53;98631.03;5093219;28;20215;-51
2022/06/15 04:31:32;;;;;;;3.27;2.40;;;;;;;14.15;71.80;98638.72;5094196;28;20207;-50
2022/06/15 04:33:59;;;;;;;3.93;2.73;;;;;;;14.26;72.31;98638.31;5093628;28;20218;-48
2022/06/15 04:36:29;;;;;;;4.13;2.57;;;;;;;14.24;71.46;98637.66;5093286;28;20189;-48
2022/06/15 04:39:00;;;;;;;6.47;2.83;;;;;;;14.26;72.54;98633.06;5092955;28;20219;-48
2022/06/15 04:41:35;;;;;;;4.53;2.93;;;;;;;14.25;72.85;98634.06;5093166;28;20683;-48
2022/06/15 04:44:05;;;;;;;6.33;3.27;;;;;;;14.26;73.32;98645.38;5093261;28;20197;-48
2022/06/15 04:46:35;;;;;;;4.37;3.00;;;;;;;14.26;74.85;98645.38;5093496;28;20197;-49
2022/06/15 04:49:03;;;;;;;8.40;3.17;;;;;;;14.29;74.70;98650.28;5092551;28;20267;-48
2022/06/15 04:51:42;;;;;;;6.03;3.57;;;;;;;14.34;74.54;98655.00;5093311;28;20186;-49
2022/06/15 04:54:10;;;;;;;10.73;4.17;;;;;;;14.42;76.14;98653.13;5093559;28;20209;-49
2022/06/15 04:56:43;;;;;;;5.63;3.47;;;;;;;14.44;75.56;98652.97;5093615;28;20574;-48
2022/06/15 04:59:15;;;;;;;5.53;3.40;;;;;;;14.44;74.65;98655.59;5092903;28;20552;-48
2022/06/15 05:01:44;;;;;;;5.00;3.57;;;;;;;14.44;75.08;98658.22;5093116;28;20244;-48
2022/06/15 05:04:11;;;;;;;4.53;3.67;;;;;;;14.43;74.43;98656.59;5092778;28;20196;-48
2022/06/15 05:06:40;;;;;;;6.10;3.37;;;;;;;14.49;75.33;98657.69;5092615;28;20590;-48
2022/06/15 05:09:12;;;;;;;5.93;3.37;;;;;;;14.54;75.59;98665.84;5092230;28;20285;-48
2022/06/15 05:11:39;;;;;;;7.80;3.80;;;;;;;14.55;75.49;98655.19;5092610;28;20203;-48
2022/06/15 05:14:07;;;;;;;6.00;4.03;;;;;;;14.60;75.74;98660.72;5092430;28;20196;-48
2022/06/15 05:16:41;;;;;;;10.33;3.80;;;;;;;14.66;76.87;98666.28;5092682;28;20659;-48
2022/06/15 05:19:13;;;;;;;8.00;4.10;;;;;;;14.68;76.39;98659.84;5092068;28;20206;-48
2022/06/15 05:21:44;;;;;;;4.77;3.53;;;;;;;14.72;76.47;98665.59;5092334;28;20670;-48
2022/06/15 05:24:14;;;;;;;5.87;3.70;;;;;;;14.75;76.23;98667.88;5092425;28;20242;-48
2022/06/15 05:26:53;;;;;;;6.73;3.70;;;;;;;14.81;75.63;98668.97;5092194;28;20561;-49
2022/06/15 05:29:22;;;;;;;6.47;3.30;;;;;;;14.86;75.59;98661.38;5091726;28;20220;-49
2022/06/15 05:31:56;;;;;;;3.90;3.33;;;;;;;14.93;75.00;98666.72;5092063;28;20204;-48
2022/06/15 05:34:24;;;;;;;3.77;3.10;;;;;;;14.99;74.42;98671.25;5092377;28;20201;-48
2022/06/15 05:36:51;;;;;;;6.87;3.57;;;;;;;15.08;74.05;98666.75;5092474;28;20280;-50
2022/06/15 05:39:18;;;;;;;9.30;3.47;;;;;;;15.25;73.44;98665.59;5091960;28;20207;-48
2022/06/15 05:41:49;;;;;;;5.67;3.63;;;;;;;15.78;72.72;98669.94;5092051;28;20205;-48
2022/06/15 05:44:20;;;;;;;6.47;3.40;;;;;;;16.34;70.42;98669.38;5092006;28;20205;-49
2022/06/15 05:46:49;;;;;;;7.07;3.20;;;;;;;16.72;69.70;98678.06;5091799;28;20586;-49
2022/06/15 05:49:50;;;;;;;5.17;3.03;;;;;;;17.04;67.69;98674.06;5089967;28;20204;-49
2022/06/15 05:52:23;;;;;;;5.70;3.60;;;;;;;17.25;66.35;98675.84;5091739;28;20282;-48
2022/06/15 05:54:50;;;;;;;7.47;3.90;;;;;;;17.49;66.63;98680.88;5091541;28;20198;-49
2022/06/15 05:57:19;;;;;;;11.30;4.53;;;;;;;17.64;66.24;98681.53;5092847;28;20180;-48
2022/06/15 05:59:47;;;;;;;9.10;3.67;;;;;;;17.81;65.58;98682.03;5092849;28;20757;-49
2022/06/15 06:02:15;;;;;;;6.10;3.50;;;;;;;18.00;66.07;98682.34;5092944;28;20184;-48
2022/06/15 06:04:43;;;;;;;11.27;3.87;;;;;;;18.17;65.85;98681.97;5093012;28;20186;-48
2022/06/15 06:07:12;;;;;;;14.27;4.73;;;;;;;18.35;64.97;98681.44;5092813;28;20267;-49
2022/06/15 06:09:40;;;;;;;9.40;4.10;;;;;;;18.47;65.34;98689.56;5092639;28;20246;-49
2022/06/15 06:12:09;;;;;;;14.80;5.20;;;;;;;18.61;65.74;98677.16;5092867;28;20584;-48
2022/06/15 06:14:37;;;;;;;11.17;4.57;;;;;;;18.77;65.87;98683.91;5092636;28;20198;-49
2022/06/15 06:17:22;;;;;;;8.63;4.53;;;;;;;18.92;63.71;98681.88;5092753;28;20201;-48
2022/06/15 06:19:49;;;;;;;7.77;3.40;;;;;;;19.03;62.96;98683.13;5092370;28;20240;-49
2022/06/15 06:22:18;;;;;;;4.97;3.63;;;;;;;19.16;62.88;98684.94;5092818;28;20218;-49
2022/06/15 06:24:45;;;;;;;6.50;3.43;;;;;;;19.29;61.89;98686.75;5092686;28;20193;-48
2022/06/15 06:27:15;;;;;;;6.07;3.67;;;;;;;19.47;60.73;98683.47;5091104;28;20275;-49
2022/06/15 06:29:42;;;;;;;4.37;3.10;;;;;;;19.59;60.21;98683.66;5092333;28;20274;-48
2022/06/15 06:32:12;;;;;;;5.47;3.43;;;;;;;19.76;59.69;98684.00;5092401;28;20217;-49
2022/06/15 06:34:40;;;;;;;4.07;3.13;;;;;;;19.87;60.24;98690.47;5092523;28;20669;-49
2022/06/15 06:37:07;;;;;;;6.37;3.67;;;;;;;20.01;60.58;98689.41;5093191;28;20225;-49
2022/06/15 06:39:36;;;;;;;4.53;3.40;;;;;;;20.05;59.22;98692.47;5099066;28;20260;-48
2022/06/15 06:42:05;;;;;;;5.53;3.60;;;;;;;20.13;59.25;98694.88;5099247;28;20207;-49
2022/06/15 06:44:35;;;;;;;5.10;3.50;;;;;;;20.20;60.06;98700.13;5097945;28;20646;-49
2022/06/15 06:47:02;;;;;;;7.03;3.87;;;;;;;20.25;60.84;98705.63;5099241;28;20190;-49
2022/06/15 06:49:29;;;;;;;6.97;3.80;;;;;;;20.43;58.79;98704.88;5098827;28;20213;-49
2022/06/15 06:51:57;;;;;;;6.63;3.60;;;;;;;20.47;57.34;98703.44;5099006;28;20216;-49
2022/06/15 06:54:24;;;;;;;5.77;3.70;;;;;;;20.49;57.70;98703.25;5099224;28;20226;-49
2022/06/15 06:56:53;;;;;;;7.43;4.00;;;;;;;20.60;57.31;98699.91;5099034;28;20210;-49
2022/06/15 06:59:20;;;;;;;6.03;4.37;;;;;;;20.72;56.90;98702.66;5098945;28;20240;-49
2022/06/15 07:01:48;;;;;;;8.90;4.60;;;;;;;20.71;56.29;98703.69;5099027;28;20180;-49
2022/06/15 07:04:17;;;;;;;6.57;4.23;;;;;;;20.81;55.93;98705.88;5099059;28;20530;-49
2022/06/15 07:06:45;;;;;;;7.07;4.37;;;;;;;20.86;53.28;98711.34;5097579;28;20191;-49
2022/06/15 07:09:13;;;;;;;5.40;4.03;;;;;;;20.90;52.33;98714.41;5098671;28;20211;-49
2022/06/15 07:11:42;;;;;;;8.27;4.33;;;;;;;20.93;51.03;98713.97;5098783;28;20679;-49
2022/06/15 07:14:11;;;;;;;8.43;4.17;;;;;;;20.96;51.76;98715.38;5097319;28;20647;-48
2022/06/15 07:16:38;;;;;;;6.60;4.30;;;;;;;20.98;51.32;98711.50;5097546;28;20201;-49
2022/06/15 07:19:06;;;;;;;8.33;4.13;;;;;;;20.80;51.25;98717.53;5098469;28;20551;-49
2022/06/15 07:21:34;;;;;;;7.00;4.20;;;;;;;20.85;52.21;98722.19;5097375;28;20192;-49
2022/06/15 07:24:04;;;;;;;5.67;3.97;;;;;;;21.05;50.47;98719.38;5098819;28;20287;-49
2022/06/15 07:26:36;;;;;;;6.07;4.23;;;;;;;21.13;49.99;98719.09;5098881;28;20194;-49
2022/06/15 07:29:03;;;;;;;7.50;4.23;;;;;;;21.14;50.38;98720.72;5098499;28;20199;-49
2022/06/15 07:31:33;;;;;;;4.57;3.70;;;;;;;21.35;52.40;98727.47;5098722;28;20225;-49
2022/06/15 07:34:01;;;;;;;5.90;3.80;;;;;;;21.54;51.55;98724.84;5098640;28;20237;-49
2022/06/15 07:36:29;;;;;;;10.67;3.40;;;;;;;21.57;49.96;98729.72;5098577;28;20185;-49
2022/06/15 07:38:57;;;;;;;7.30;3.90;;;;;;;21.59;49.50;98734.81;5098353;28;20280;-49
2022/06/15 07:41:26;;;;;;;6.57;3.77;;;;;;;21.69;49.75;98735.16;5098890;28;20561;-49
2022/06/15 07:43:54;;;;;;;8.43;4.37;;;;;;;21.78;50.07;98736.47;5097200;28;20192;-49
2022/06/15 07:46:22;;;;;;;6.60;4.10;;;;;;;21.76;49.10;98738.53;5097096;28;20191;-49
2022/06/15 07:51:37;;;;;;;5.70;4.07;;;;;;;21.72;49.43;98742.69;5095174;28;20643;-50
2022/06/15 07:54:08;;;;;;;8.53;3.73;;;;;;;21.85;48.90;98740.91;5093805;28;20192;-49
2022/06/15 07:56:36;;;;;;;9.53;4.37;;;;;;;21.73;50.86;98740.84;5095202;28;20227;-49
2022/06/15 07:59:05;;;;;;;7.07;3.90;;;;;;;21.83;50.97;98741.13;5093506;28;20250;-49
2022/06/15 08:01:32;;;;;;;8.47;3.77;;;;;;;21.87;48.73;98739.66;5095010;28;20183;-49
2022/06/15 08:04:01;;;;;;;7.50;4.10;;;;;;;21.96;48.66;98743.63;5095386;28;20252;-48
2022/06/15 08:06:32;;;;;;;7.77;3.97;;;;;;;21.85;47.47;98739.06;5095266;28;20655;-49
2022/06/15 08:09:02;;;;;;;5.03;3.70;;;;;;;21.97;49.75;98739.94;5094919;28;20206;-49
2022/06/15 08:11:29;;;;;;;7.07;3.70;;;;;;;22.03;47.33;98740.09;5095014;28;20235;-49
2022/06/15 08:13:56;;;;;;;6.03;3.63;;;;;;;22.09;45.96;98739.19;5094905;28;20202;-49
2022/06/15 08:16:24;;;;;;;7.50;3.90;;;;;;;22.00;47.19;98735.22;5094882;28;20756;-49
2022/06/15 08:18:56;;;;;;;6.00;3.70;;;;;;;22.12;45.88;98742.22;5094302;28;20218;-49
2022/06/15 08:21:27;;;;;;;6.63;3.70;;;;;;;22.26;46.58;98732.22;5094882;28;20189;-49
2022/06/15 08:23:56;;;;;;;8.20;3.53;;;;;;;22.38;46.05;98734.94;5094772;28;20195;-49
2022/06/15 08:26:26;;;;;;;10.80;4.67;;;;;;;22.35;45.40;98737.22;5093293;28;20226;-49
2022/06/15 08:28:57;;;;;;;4.93;3.53;;;;;;;22.38;46.14;98737.59;5094287;28;20212;-49
2022/06/15 08:31:25;;;;;;;5.80;3.53;;;;;;;22.51;46.85;98739.28;5094684;28;20223;-49
2022/06/15 08:34:11;;;;;;;5.27;3.40;;;;;;;22.58;47.72;98747.19;5095005;28;20580;-49
2022/06/15 08:36:40;;;;;;;6.73;3.67;;;;;;;22.63;47.62;98749.16;5093162;28;20202;-49
2022/06/15 08:39:07;;;;;;;7.97;3.77;;;;;;;22.65;46.12;98744.41;5092817;28;20559;-50
2022/06/15 08:41:45;;;;;;;7.13;3.93;;;;;;;22.65;47.41;98750.56;5094519;28;20185;-49
2022/06/15 08:44:25;;;;;;;7.37;3.60;;;;;;;22.64;46.67;98751.59;5094309;28;20200;-50
2022/06/15 08:47:11;;;;;;;7.80;4.20;;;;;;;22.72;46.93;98750.44;5092932;28;20599;-50
2022/06/15 08:49:56;;;;;;;10.13;4.20;;;;;;;22.80;48.10;98751.97;5093927;28;20188;-49
2022/06/15 08:52:33;;;;;;;7.50;4.00;;;;;;;22.75;47.17;98751.84;5094194;28;20217;-49
2022/06/15 08:55:07;;;;;;;6.43;4.00;;;;;;;22.76;47.28;98753.47;5094015;28;20180;-49
2022/06/15 08:57:42;;;;;;;6.93;4.07;;;;;;;22.77;46.41;98753.22;5092428;28;20204;-49
2022/06/15 09:00:14;;;;;;;7.70;4.00;;;;;;;22.66;46.90;98754.00;5093743;28;20251;-49
2022/06/15 09:02:48;;;;;;;7.00;4.10;;;;;;;22.72;47.07;98749.66;5093987;28;20267;-49
2022/06/15 09:05:27;;;;;;;6.87;4.30;;;;;;;22.85;47.77;98747.59;5094087;28;20204;-49
2022/06/15 09:08:19;;;;;;;7.77;4.33;;;;;;;22.96;47.14;98743.31;5093571;28;20212;-48
2022/06/15 09:10:55;;;;;;;5.47;4.23;;;;;;;23.12;47.72;98743.69;5092341;28;20246;-49
2022/06/15 09:13:37;;;;;;;7.50;4.50;;;;;;;23.19;46.75;98749.72;5093777;28;20265;-50
2022/06/15 09:16:12;;;;;;;7.63;3.80;;;;;;;23.31;45.97;98739.13;5093926;28;20192;-49
2022/06/15 09:18:45;;;;;;;7.23;3.73;;;;;;;23.41;46.49;98747.31;5091972;28;20198;-49
2022/06/15 09:21:17;;;;;;;7.13;4.13;;;;;;;23.55;45.84;98744.41;5092340;28;20186;-49
2022/06/15 09:23:51;;;;;;;12.13;4.30;;;;;;;23.59;45.95;98745.56;5093577;28;20193;-49
2022/06/15 09:26:25;;;;;;;8.93;4.47;;;;;;;23.64;46.66;98744.88;5092234;28;20550;-49
2022/06/15 09:28:58;;;;;;;6.73;3.47;;;;;;;23.81;46.20;98742.28;5093290;28;20245;-49
2022/06/15 09:31:32;;;;;;;5.80;3.83;;;;;;;23.79;46.51;98736.38;5093513;28;20267;-49
2022/06/15 09:34:02;;;;;;;7.33;3.87;;;;;;;23.98;46.11;98743.19;5093555;28;20179;-48
2022/06/15 09:36:33;;;;;;;6.27;4.00;;;;;;;24.05;45.81;98737.72;5092033;28;20251;-48
2022/06/15 09:39:02;;;;;;;8.70;4.57;;;;;;;24.14;46.12;98732.84;5093463;28;20199;-49
2022/06/15 09:41:37;;;;;;;10.27;4.37;;;;;;;24.15;45.04;98737.13;5091970;28;20240;-49
2022/06/15 09:44:17;;;;;;;6.33;4.23;;;;;;;24.14;45.38;98738.19;5093477;28;20193;-51
2022/06/15 09:46:52;;;;;;;7.27;4.27;;;;;;;24.14;45.92;98735.53;5091980;28;20289;-49
2022/06/15 09:49:32;;;;;;;7.07;4.20;;;;;;;24.26;45.75;98733.63;5093001;28;20205;-48
2022/06/15 09:52:06;;;;;;;8.60;4.40;;;;;;;24.34;46.77;98739.63;5093215;28;20198;-48
2022/06/15 09:54:47;;;;;;;6.17;4.40;;;;;;;24.42;46.72;98739.22;5091856;28;20630;-47
2022/06/15 09:57:14;;;;;;;10.83;4.63;;;;;;;24.51;45.96;98740.44;5091619;28;20544;-48
2022/06/15 09:59:41;;;;;;;7.50;4.30;;;;;;;24.60;45.93;98731.00;5091405;28;20581;-48
2022/06/15 10:02:20;;;;;;;6.57;3.97;;;;;;;24.85;43.67;98742.41;5093161;28;20194;-48
2022/06/15 10:04:48;;;;;;;7.17;3.63;;;;;;;24.87;45.22;98738.44;5092962;28;20199;-48
2022/06/15 10:07:25;;;;;;;5.60;4.00;;;;;;;24.94;44.69;98740.94;5092817;28;20188;-49
2022/06/15 10:09:58;;;;;;;8.87;3.93;;;;;;;25.02;44.16;98737.84;5092733;28;20187;-48
2022/06/15 10:12:56;;;;;;;7.47;3.77;;;;;;;25.10;43.16;98731.31;5090691;28;20226;-50
2022/06/15 10:15:27;;;;;;;6.47;4.10;;;;;;;25.30;44.59;98735.34;5092854;28;20201;-47
2022/06/15 10:17:57;;;;;;;8.00;3.60;;;;;;;25.25;42.67;98725.38;5092585;28;20568;-47
2022/06/15 10:20:31;;;;;;;5.10;3.53;;;;;;;25.33;42.90;98732.97;5092642;28;20203;-47
2022/06/15 10:23:00;;;;;;;5.93;3.53;;;;;;;25.40;42.18;98730.16;5092657;28;20217;-48
2022/06/15 10:25:33;;;;;;;10.03;4.10;;;;;;;25.47;42.17;98724.66;5092589;28;20186;-50
2022/06/15 10:28:17;;;;;;;8.47;3.30;;;;;;;25.55;41.39;98718.88;5092207;28;20264;-49
2022/06/15 10:30:53;;;;;;;7.37;3.27;;;;;;;25.64;42.43;98720.06;5092449;28;20677;-48
2022/06/15 10:33:21;;;;;;;5.20;3.57;;;;;;;25.72;40.79;98718.81;5092469;28;20195;-48
2022/06/15 10:35:56;;;;;;;5.50;3.23;;;;;;;25.68;40.20;98720.38;5092439;28;20576;-49
2022/06/15 10:38:25;;;;;;;6.73;3.37;;;;;;;25.68;40.30;98716.91;5080874;28;20302;-49
2022/06/15 10:41:45;;;;;;;4.33;3.23;;;;;;;25.71;39.72;98717.22;5081397;28;20223;-48
2022/06/15 10:43:51;;;;;;;5.10;3.23;;;;;;;25.84;40.29;98713.38;5081105;28;20246;-48
2022/06/15 10:46:20;;;;;;;7.43;2.87;;;;;;;25.84;39.73;98716.03;5073585;28;20231;-48
2022/06/15 10:48:52;;;;;;;4.77;2.90;;;;;;;25.95;36.22;98716.97;5071131;28;20596;-48
2022/06/15 10:51:32;;;;;;;3.97;2.30;;;;;;;25.98;35.40;98713.78;5071152;28;20590;-48
2022/06/15 10:54:20;;;;;;;4.93;2.50;;;;;;;26.10;34.74;98713.63;5070983;28;20253;-48
2022/06/15 11:02:31;;;;;;;3.17;2.70;;;;;;;26.42;32.09;98712.13;5054023;28;20221;-48
2022/06/15 11:05:03;;;;;;;5.20;2.00;;;;;;;26.54;30.40;98707.41;5071355;28;20247;-49
2022/06/15 11:07:41;;;;;;;4.50;2.37;;;;;;;26.70;32.55;98710.22;5071362;28;20277;-48
2022/06/15 11:10:20;;;;;;;3.00;2.10;;;;;;;26.72;30.33;98714.28;5071295;28;20575;-49
2022/06/15 11:12:51;;;;;;;4.13;2.50;;;;;;;26.86;32.47;98705.84;5070967;28;20247;-48
2022/06/15 11:18:21;;;;;;;4.47;1.90;;;;;;;26.72;29.07;98702.75;5070535;28;20274;-48
2022/06/15 11:20:54;;;;;;;4.97;2.30;;;;;;;26.93;31.29;98703.75;5071403;28;20294;-48
2022/06/15 11:23:25;;;;;;;7.90;2.50;;;;;;;27.02;29.03;98706.75;5071257;28;20282;-49
2022/06/15 11:25:55;;;;;;;2.97;1.90;;;;;;;27.07;26.75;98698.75;5074657;28;20206;-49
2022/06/15 11:28:28;;;;;;;1.93;1.50;;;;;;;27.20;27.86;98703.66;5074465;28;20217;-49
2022/06/15 11:30:59;;;;;;;2.85;1.80;;;;;;;27.21;30.75;98701.78;5074704;28;20284;-48
2022/06/15 11:33:34;;;;;;;4.38;2.13;;;;;;;27.22;29.64;98701.53;5074570;28;20308;-48
2022/06/15 11:36:10;;;;;;;3.25;2.00;;;;;;;27.38;28.67;98690.91;5074411;28;20675;-48
2022/06/15 11:38:47;;;;;;;5.60;1.60;;;;;;;27.26;26.30;98697.28;5073008;28;20316;-48
2022/06/15 11:41:23;;;;;;;3.30;1.10;;;;;;;27.19;24.11;98703.91;5074385;28;20231;-49
2022/06/15 11:43:54;;;;;;;4.80;1.83;;;;;;;27.37;28.03;98706.16;5074343;28;20718;-48
2022/06/15 11:46:40;;;;;;;3.63;2.00;;;;;;;27.49;28.39;98703.31;5073075;28;20302;-49
2022/06/15 11:49:22;;;;;;;2.97;1.75;;;;;;;27.37;27.39;98700.00;5074033;28;20287;-48
2022/06/15 11:52:10;;;;;;;3.77;2.03;;;;;;;27.52;28.01;98699.28;5075072;28;20282;-48
2022/06/15 11:54:53;;;;;;;3.90;1.80;;;;;;;27.47;27.07;98693.88;5094727;28;20213;-48
2022/06/15 11:57:31;;;;;;;8.40;1.90;;;;;;;27.55;27.60;98694.25;5092762;28;20225;-49
2022/06/15 12:00:19;;;;;;;3.27;1.70;;;;;;;27.63;25.34;98695.59;5093849;28;20198;-50
2022/06/15 12:03:24;;;;;;;3.65;1.92;;;;;;;27.95;28.49;98700.00;5091641;28;20233;-50
2022/06/15 12:05:54;;;;;;;3.88;2.20;;;;;;;28.18;26.36;98684.50;5071053;28;20207;-49
2022/06/15 12:08:34;;;;;;;1.90;1.70;;;;;;;28.02;26.06;98694.38;5070595;28;20716;-49
2022/06/15 12:12:37;;;;;;;2.83;1.70;;;;;;;28.02;26.45;98694.38;5071043;28;20204;-49